Etusivu
METAR-TAF:

METAR-TAF

Lentoasemat :

Midland, Texas, Yhdysvallat

Leveyspiiri: 32-02-11N, Pituuspiiri: 102-06-03W, korkeus merenpinnasta: 854 m

Tämänhetkinen sää

Tämä raportti tehtiin 18 minuuttia sitten, kello 14.35 UTC
Tuuli 6 kn idästä
Lämpötila 25°C
Kosteus 65%
Ilmanpaine 1019 hPa
Näkyvyys: 16.1 km
selkeää

METAR: KMDD 121435Z AUTO 10006KT 10SM CLR 25/18 A3009 RMK AO2 T02460178

Aika: 09:53 (14:53 UTC)


TAF: puuttuu

Säähavainnot ja -ennusteet yli 4000 lentoasemalta (METAR- ja TAF-raportit).

Käytössä olevat sääasemat on merkitty karttaan keltaisilla ja punaisilla pisteillä.

Aseta hiiri pisteen päälle nähdäksesi sääaseman nimen.

Klikkaa sitten nähdäksesi säähavainnot ja -ennusteet.

Kartan vaihtaminen: klikkaa mustalla rastilla varustettuja vihreitä pisteitä, niin voit zoomata sisään; viivalla varustettua vihreää pistettä, niin voit zoomata ulos tai vihreitä nuolia, niin pääset viereisille kartoille.


METAR-TAF: